SWA1301 KBWI-KSAN
Flight info
| Callsign | SWA1301 |
|---|---|
| Flight time | 5h 7m |
| Altitude | 34000 |
| Route | FOXHL1 OTTTO Q176 CIM J96 PKE LUCKI1 |
| Aircraft | B738/M-SADE2E3GIJ4RWZ/LB1D1 |
Departure
| Time | 2026-04-24 14:04 |
|---|---|
| Airport | Baltimore/Washington International Thurgood Marshall Airport (KBWI) |
Arrival
| Time | 2026-04-24 19:11 |
|---|---|
| Airport | San Diego International Airport (KSAN) |
| Time | Latitude | Longitude | Altitude | Speed | Heading |
|---|---|---|---|---|---|
| 2026-04-24 13:38 | 39.17681 | -76.66617 | 154 ft | 0 kts | 326° |
| 2026-04-24 13:56 | 39.17675 | -76.66611 | 154 ft | 2 kts | 326° |
| 2026-04-24 13:56 | 39.17662 | -76.66599 | 154 ft | 2 kts | 326° |
| 2026-04-24 13:57 | 39.17648 | -76.66587 | 154 ft | 2 kts | 326° |
| 2026-04-24 13:57 | 39.17634 | -76.66578 | 154 ft | 2 kts | 2° |
| 2026-04-24 13:57 | 39.17623 | -76.66582 | 154 ft | 1 kts | 53° |
| 2026-04-24 13:57 | 39.17621 | -76.66585 | 154 ft | 0 kts | 55° |
| 2026-04-24 13:58 | 39.17626 | -76.66578 | 154 ft | 6 kts | 49° |
| 2026-04-24 13:58 | 39.17689 | -76.66516 | 154 ft | 15 kts | 34° |
| 2026-04-24 13:58 | 39.17751 | -76.66416 | 155 ft | 14 kts | 64° |
| 2026-04-24 13:59 | 39.17773 | -76.66298 | 154 ft | 14 kts | 104° |
| 2026-04-24 13:59 | 39.17735 | -76.66190 | 153 ft | 13 kts | 116° |
| 2026-04-24 13:59 | 39.17696 | -76.66087 | 151 ft | 13 kts | 116° |
| 2026-04-24 13:59 | 39.17657 | -76.65987 | 151 ft | 12 kts | 117° |
| 2026-04-24 14:00 | 39.17619 | -76.65888 | 151 ft | 12 kts | 115° |
| 2026-04-24 14:00 | 39.17582 | -76.65790 | 151 ft | 12 kts | 115° |
| 2026-04-24 14:00 | 39.17545 | -76.65696 | 153 ft | 12 kts | 123° |
| 2026-04-24 14:00 | 39.17474 | -76.65663 | 157 ft | 11 kts | 180° |
| 2026-04-24 14:01 | 39.17425 | -76.65600 | 157 ft | 11 kts | 103° |
| 2026-04-24 14:01 | 39.17389 | -76.65533 | 157 ft | 9 kts | 155° |
| 2026-04-24 14:01 | 39.17328 | -76.65522 | 158 ft | 9 kts | 162° |
| 2026-04-24 14:01 | 39.17274 | -76.65485 | 159 ft | 9 kts | 149° |
| 2026-04-24 14:02 | 39.17209 | -76.65436 | 158 ft | 12 kts | 149° |
| 2026-04-24 14:02 | 39.17162 | -76.65345 | 156 ft | 12 kts | 85° |
| 2026-04-24 14:02 | 39.17216 | -76.65288 | 158 ft | 10 kts | 19° |
| 2026-04-24 14:02 | 39.17264 | -76.65307 | 159 ft | 7 kts | 290° |
| 2026-04-24 14:03 | 39.17283 | -76.65573 | 156 ft | 65 kts | 275° |
| 2026-04-24 14:03 | 39.17334 | -76.66465 | 152 ft | 132 kts | 274° |
| 2026-04-24 14:03 | 39.17416 | -76.67901 | 154 ft | 187 kts | 274° |
| 2026-04-24 14:03 | 39.17511 | -76.69663 | 675 ft | 202 kts | 275° |
| 2026-04-24 14:04 | 39.17615 | -76.71545 | 1226 ft | 222 kts | 275° |
| 2026-04-24 14:04 | 39.17723 | -76.73576 | 1743 ft | 234 kts | 276° |
| 2026-04-24 14:04 | 39.17847 | -76.75743 | 2189 ft | 249 kts | 280° |
| 2026-04-24 14:04 | 39.18203 | -76.77926 | 2845 ft | 248 kts | 288° |
| 2026-04-24 14:05 | 39.18641 | -76.80073 | 3517 ft | 247 kts | 289° |
| 2026-04-24 14:05 | 39.19087 | -76.82235 | 4092 ft | 252 kts | 289° |
| 2026-04-24 14:05 | 39.19532 | -76.84417 | 4711 ft | 252 kts | 289° |
| 2026-04-24 14:05 | 39.19970 | -76.86609 | 5306 ft | 253 kts | 288° |
| 2026-04-24 14:06 | 39.20408 | -76.88824 | 5887 ft | 255 kts | 288° |
| 2026-04-24 14:06 | 39.20843 | -76.91050 | 6527 ft | 256 kts | 288° |
| 2026-04-24 14:06 | 39.21270 | -76.93246 | 7124 ft | 257 kts | 287° |
| 2026-04-24 14:06 | 39.21707 | -76.95498 | 7693 ft | 260 kts | 287° |
| 2026-04-24 14:07 | 39.22073 | -76.97807 | 8252 ft | 266 kts | 277° |
| 2026-04-24 14:07 | 39.22130 | -77.00210 | 8877 ft | 268 kts | 272° |
| 2026-04-24 14:07 | 39.22125 | -77.02629 | 9512 ft | 270 kts | 272° |
| 2026-04-24 14:07 | 39.22134 | -77.05058 | 10124 ft | 272 kts | 272° |
| 2026-04-24 14:08 | 39.22158 | -77.07562 | 10378 ft | 289 kts | 272° |
| 2026-04-24 14:08 | 39.22193 | -77.10240 | 10528 ft | 308 kts | 272° |
| 2026-04-24 14:08 | 39.22018 | -77.13030 | 10635 ft | 329 kts | 255° |
| 2026-04-24 14:08 | 39.20934 | -77.15718 | 10779 ft | 351 kts | 233° |
| 2026-04-24 14:09 | 39.19226 | -77.18080 | 10930 ft | 368 kts | 228° |
| 2026-04-24 14:09 | 39.17398 | -77.20440 | 11302 ft | 375 kts | 227° |
| 2026-04-24 14:09 | 39.15538 | -77.22829 | 11844 ft | 378 kts | 227° |
| 2026-04-24 14:09 | 39.13679 | -77.25236 | 12396 ft | 381 kts | 227° |
| 2026-04-24 14:10 | 39.12441 | -77.26851 | 12757 ft | 383 kts | 227° |
| 2026-04-24 14:10 | 39.09936 | -77.30142 | 13518 ft | 386 kts | 227° |
| 2026-04-24 14:10 | 39.08080 | -77.32585 | 14094 ft | 387 kts | 227° |
| 2026-04-24 14:10 | 39.06190 | -77.35074 | 14603 ft | 390 kts | 228° |
| 2026-04-24 14:11 | 39.04567 | -77.37863 | 15055 ft | 391 kts | 246° |
| 2026-04-24 14:11 | 39.03672 | -77.41148 | 15628 ft | 390 kts | 255° |
| 2026-04-24 14:11 | 39.02179 | -77.47915 | 16671 ft | 396 kts | 256° |
| 2026-04-24 14:12 | 39.01422 | -77.51338 | 17178 ft | 399 kts | 256° |
| 2026-04-24 14:12 | 39.00653 | -77.54779 | 17671 ft | 402 kts | 256° |
| 2026-04-24 14:12 | 38.99869 | -77.58249 | 18163 ft | 405 kts | 256° |
| 2026-04-24 14:12 | 38.99073 | -77.61741 | 18571 ft | 408 kts | 255° |
| 2026-04-24 14:13 | 38.98271 | -77.65245 | 18992 ft | 410 kts | 255° |
| 2026-04-24 14:13 | 38.97469 | -77.68733 | 19415 ft | 412 kts | 255° |
| 2026-04-24 14:13 | 38.96654 | -77.72270 | 19844 ft | 414 kts | 256° |
| 2026-04-24 14:13 | 38.95834 | -77.75822 | 20267 ft | 416 kts | 256° |
| 2026-04-24 14:14 | 38.95009 | -77.79394 | 20687 ft | 418 kts | 256° |
| 2026-04-24 14:14 | 38.94179 | -77.82984 | 21069 ft | 420 kts | 256° |
| 2026-04-24 14:14 | 38.92501 | -77.90220 | 21855 ft | 424 kts | 256° |
| 2026-04-24 14:15 | 38.91657 | -77.93852 | 22227 ft | 426 kts | 256° |
| 2026-04-24 14:15 | 38.90806 | -77.97507 | 22561 ft | 429 kts | 256° |
| 2026-04-24 14:15 | 38.89948 | -78.01185 | 22932 ft | 430 kts | 256° |
| 2026-04-24 14:15 | 38.89086 | -78.04875 | 23287 ft | 432 kts | 256° |
| 2026-04-24 14:16 | 38.88219 | -78.08583 | 23601 ft | 435 kts | 256° |
| 2026-04-24 14:16 | 38.87359 | -78.12257 | 23879 ft | 436 kts | 256° |
| 2026-04-24 14:16 | 38.86482 | -78.15999 | 24190 ft | 437 kts | 256° |
| 2026-04-24 14:17 | 38.85227 | -78.23610 | 24704 ft | 436 kts | 272° |
| 2026-04-24 14:17 | 38.85257 | -78.27505 | 25008 ft | 437 kts | 272° |
| 2026-04-24 14:17 | 38.85241 | -78.35339 | 25520 ft | 441 kts | 271° |
| 2026-04-24 14:18 | 38.85205 | -78.39283 | 25775 ft | 442 kts | 271° |
| 2026-04-24 14:18 | 38.85161 | -78.43198 | 26039 ft | 444 kts | 271° |
| 2026-04-24 14:18 | 38.85112 | -78.47160 | 26275 ft | 446 kts | 271° |
| 2026-04-24 14:18 | 38.85060 | -78.51155 | 26521 ft | 447 kts | 271° |
| 2026-04-24 14:19 | 38.85025 | -78.53800 | 26700 ft | 448 kts | 271° |
| 2026-04-24 14:19 | 38.84954 | -78.59137 | 27171 ft | 446 kts | 271° |
| 2026-04-24 14:19 | 38.84900 | -78.63110 | 27567 ft | 444 kts | 271° |
| 2026-04-24 14:19 | 38.84846 | -78.67015 | 27936 ft | 443 kts | 271° |
| 2026-04-24 14:20 | 38.84790 | -78.70973 | 28237 ft | 443 kts | 271° |
| 2026-04-24 14:20 | 38.84734 | -78.74944 | 28475 ft | 445 kts | 271° |
| 2026-04-24 14:20 | 38.84676 | -78.78922 | 28808 ft | 444 kts | 271° |
| 2026-04-24 14:20 | 38.84637 | -78.81552 | 29085 ft | 443 kts | 271° |
| 2026-04-24 14:21 | 38.84556 | -78.86763 | 29640 ft | 440 kts | 271° |
| 2026-04-24 14:21 | 38.84494 | -78.90694 | 29949 ft | 441 kts | 271° |
| 2026-04-24 14:21 | 38.84432 | -78.94626 | 30238 ft | 440 kts | 271° |
| 2026-04-24 14:21 | 38.84368 | -78.98547 | 30537 ft | 439 kts | 271° |
| 2026-04-24 14:22 | 38.84324 | -79.01197 | 30727 ft | 439 kts | 271° |
| 2026-04-24 14:22 | 38.84258 | -79.05068 | 30970 ft | 439 kts | 271° |
| 2026-04-24 14:22 | 38.84123 | -79.12957 | 31302 ft | 442 kts | 271° |
| 2026-04-24 14:23 | 38.84051 | -79.16868 | 31880 ft | 435 kts | 271° |
| 2026-04-24 14:23 | 38.83980 | -79.20745 | 32160 ft | 435 kts | 271° |
| 2026-04-24 14:23 | 38.83909 | -79.24649 | 32261 ft | 438 kts | 271° |
| 2026-04-24 14:23 | 38.83837 | -79.28573 | 32423 ft | 440 kts | 271° |
| 2026-04-24 14:24 | 38.83764 | -79.32447 | 32691 ft | 438 kts | 271° |
| 2026-04-24 14:24 | 38.83690 | -79.36349 | 32988 ft | 436 kts | 271° |
| 2026-04-24 14:24 | 38.83615 | -79.40245 | 33215 ft | 437 kts | 271° |
| 2026-04-24 14:24 | 38.83539 | -79.44150 | 33390 ft | 438 kts | 271° |
| 2026-04-24 14:25 | 38.83461 | -79.48068 | 33445 ft | 442 kts | 271° |
| 2026-04-24 14:25 | 38.83381 | -79.52023 | 33663 ft | 442 kts | 271° |
| 2026-04-24 14:25 | 38.83299 | -79.55957 | 33962 ft | 440 kts | 271° |
| 2026-04-24 14:26 | 38.83133 | -79.63791 | 33969 ft | 442 kts | 271° |
| 2026-04-24 14:26 | 38.82960 | -79.71640 | 33996 ft | 438 kts | 271° |
| 2026-04-24 14:27 | 38.82785 | -79.79424 | 33995 ft | 435 kts | 271° |
| 2026-04-24 14:27 | 38.82605 | -79.87156 | 33996 ft | 434 kts | 271° |
| 2026-04-24 14:28 | 38.82422 | -79.94959 | 34008 ft | 441 kts | 270° |
| 2026-04-24 14:28 | 38.82228 | -80.02881 | 33992 ft | 445 kts | 270° |
| 2026-04-24 14:29 | 38.82027 | -80.10830 | 33993 ft | 446 kts | 270° |
| 2026-04-24 14:29 | 38.81818 | -80.18785 | 33960 ft | 446 kts | 270° |
| 2026-04-24 14:30 | 38.81599 | -80.26691 | 33964 ft | 446 kts | 270° |
| 2026-04-24 14:30 | 38.81374 | -80.34643 | 33961 ft | 445 kts | 270° |
| 2026-04-24 14:31 | 38.81146 | -80.42581 | 33963 ft | 445 kts | 270° |
| 2026-04-24 14:31 | 38.80913 | -80.50496 | 33947 ft | 444 kts | 270° |
| 2026-04-24 14:32 | 38.80677 | -80.58349 | 33930 ft | 443 kts | 270° |
| 2026-04-24 14:32 | 38.80434 | -80.66234 | 33945 ft | 442 kts | 270° |
| 2026-04-24 14:33 | 38.80187 | -80.74113 | 33950 ft | 442 kts | 270° |
| 2026-04-24 14:33 | 38.79934 | -80.81996 | 33945 ft | 443 kts | 270° |
| 2026-04-24 14:34 | 38.79675 | -80.89885 | 33948 ft | 443 kts | 270° |
| 2026-04-24 14:34 | 38.79411 | -80.97780 | 33947 ft | 443 kts | 269° |
| 2026-04-24 14:35 | 38.79141 | -81.05689 | 33950 ft | 444 kts | 269° |
| 2026-04-24 14:35 | 38.78865 | -81.13613 | 33953 ft | 445 kts | 269° |
| 2026-04-24 14:36 | 38.78585 | -81.21508 | 33944 ft | 446 kts | 269° |
| 2026-04-24 14:36 | 38.78298 | -81.29454 | 33945 ft | 446 kts | 269° |
| 2026-04-24 14:37 | 38.78004 | -81.37416 | 33954 ft | 447 kts | 269° |
| 2026-04-24 14:37 | 38.77706 | -81.45365 | 33957 ft | 447 kts | 269° |
| 2026-04-24 14:38 | 38.77402 | -81.53331 | 33950 ft | 447 kts | 269° |
| 2026-04-24 14:38 | 38.77092 | -81.61289 | 33956 ft | 447 kts | 269° |
| 2026-04-24 14:39 | 38.76780 | -81.69186 | 33951 ft | 447 kts | 269° |
| 2026-04-24 14:39 | 38.76460 | -81.77135 | 33949 ft | 446 kts | 269° |
| 2026-04-24 14:40 | 38.76135 | -81.85065 | 33947 ft | 445 kts | 269° |
| 2026-04-24 14:40 | 38.75806 | -81.92991 | 33948 ft | 445 kts | 269° |
| 2026-04-24 14:41 | 38.75473 | -82.00903 | 33950 ft | 444 kts | 269° |
| 2026-04-24 14:41 | 38.75158 | -82.08749 | 33949 ft | 443 kts | 269° |
| 2026-04-24 14:42 | 38.74868 | -82.16645 | 33951 ft | 443 kts | 269° |
| 2026-04-24 14:42 | 38.74574 | -82.24532 | 33957 ft | 443 kts | 269° |
| 2026-04-24 14:43 | 38.74272 | -82.32414 | 33958 ft | 443 kts | 269° |
| 2026-04-24 14:43 | 38.73962 | -82.40297 | 33959 ft | 443 kts | 269° |
| 2026-04-24 14:44 | 38.73648 | -82.48137 | 33967 ft | 443 kts | 269° |
| 2026-04-24 14:44 | 38.73326 | -82.56031 | 33954 ft | 443 kts | 269° |
| 2026-04-24 14:45 | 38.73000 | -82.63925 | 33957 ft | 444 kts | 269° |
| 2026-04-24 14:45 | 38.72668 | -82.71814 | 33957 ft | 444 kts | 269° |
| 2026-04-24 14:46 | 38.72331 | -82.79703 | 33952 ft | 444 kts | 269° |
| 2026-04-24 14:46 | 38.71988 | -82.87603 | 33957 ft | 444 kts | 269° |
| 2026-04-24 14:47 | 38.71640 | -82.95496 | 33959 ft | 444 kts | 269° |
| 2026-04-24 14:47 | 38.71288 | -83.03343 | 33959 ft | 444 kts | 269° |
| 2026-04-24 14:48 | 38.70929 | -83.11250 | 33959 ft | 444 kts | 268° |
| 2026-04-24 14:48 | 38.70565 | -83.19141 | 33966 ft | 444 kts | 268° |
| 2026-04-24 14:49 | 38.70196 | -83.27031 | 33964 ft | 444 kts | 268° |
| 2026-04-24 14:49 | 38.69821 | -83.34925 | 33958 ft | 443 kts | 268° |
| 2026-04-24 14:50 | 38.69442 | -83.42794 | 33967 ft | 443 kts | 268° |
| 2026-04-24 14:50 | 38.69061 | -83.50609 | 33959 ft | 442 kts | 268° |
| 2026-04-24 14:51 | 38.68672 | -83.58474 | 33961 ft | 442 kts | 268° |
| 2026-04-24 14:51 | 38.68277 | -83.66332 | 33955 ft | 441 kts | 268° |
| 2026-04-24 14:52 | 38.67881 | -83.74124 | 33957 ft | 441 kts | 268° |
| 2026-04-24 14:52 | 38.67478 | -83.81960 | 33954 ft | 441 kts | 268° |
| 2026-04-24 14:53 | 38.67069 | -83.89787 | 33965 ft | 441 kts | 268° |
| 2026-04-24 14:53 | 38.66655 | -83.97620 | 33966 ft | 441 kts | 269° |
| 2026-04-24 14:54 | 38.66236 | -84.05458 | 33952 ft | 441 kts | 269° |
| 2026-04-24 14:54 | 38.65812 | -84.13283 | 33948 ft | 440 kts | 269° |
| 2026-04-24 14:55 | 38.65456 | -84.19770 | 33946 ft | 440 kts | 269° |
| 2026-04-24 14:55 | 38.64953 | -84.28844 | 33946 ft | 440 kts | 268° |
| 2026-04-24 14:56 | 38.64515 | -84.36648 | 33941 ft | 439 kts | 269° |
| 2026-04-24 14:56 | 38.64273 | -84.44436 | 33929 ft | 435 kts | 277° |
| 2026-04-24 14:57 | 38.64898 | -84.52125 | 33926 ft | 434 kts | 279° |
| 2026-04-24 14:57 | 38.65557 | -84.59751 | 33924 ft | 434 kts | 279° |
| 2026-04-24 14:58 | 38.66176 | -84.67432 | 33907 ft | 434 kts | 278° |
| 2026-04-24 14:58 | 38.66770 | -84.75117 | 33914 ft | 434 kts | 278° |
| 2026-04-24 14:59 | 38.67355 | -84.82808 | 33913 ft | 434 kts | 278° |
| 2026-04-24 14:59 | 38.67936 | -84.90503 | 33909 ft | 434 kts | 278° |
| 2026-04-24 15:00 | 38.68513 | -84.98202 | 33908 ft | 434 kts | 278° |
| 2026-04-24 15:00 | 38.69085 | -85.05905 | 33898 ft | 435 kts | 278° |
| 2026-04-24 15:01 | 38.69650 | -85.13563 | 33904 ft | 435 kts | 278° |
| 2026-04-24 15:01 | 38.70171 | -85.21298 | 33897 ft | 436 kts | 277° |
| 2026-04-24 15:02 | 38.70562 | -85.29054 | 33896 ft | 436 kts | 276° |
| 2026-04-24 15:02 | 38.70937 | -85.36826 | 33936 ft | 437 kts | 276° |
| 2026-04-24 15:03 | 38.71256 | -85.43292 | 33932 ft | 437 kts | 276° |
| 2026-04-24 15:03 | 38.71707 | -85.52337 | 33937 ft | 437 kts | 276° |
| 2026-04-24 15:04 | 38.72091 | -85.60112 | 33927 ft | 438 kts | 276° |
| 2026-04-24 15:04 | 38.72471 | -85.67909 | 33922 ft | 438 kts | 276° |
| 2026-04-24 15:05 | 38.72842 | -85.75657 | 33910 ft | 438 kts | 276° |
| 2026-04-24 15:05 | 38.73212 | -85.83459 | 33894 ft | 438 kts | 276° |
| 2026-04-24 15:06 | 38.73575 | -85.91253 | 33878 ft | 438 kts | 276° |
| 2026-04-24 15:06 | 38.73934 | -85.99053 | 33880 ft | 438 kts | 275° |
| 2026-04-24 15:07 | 38.74287 | -86.06844 | 33880 ft | 438 kts | 275° |
| 2026-04-24 15:07 | 38.74633 | -86.14596 | 33877 ft | 438 kts | 275° |
| 2026-04-24 15:08 | 38.74976 | -86.22393 | 33883 ft | 438 kts | 275° |
| 2026-04-24 15:08 | 38.75313 | -86.30172 | 33883 ft | 437 kts | 275° |
| 2026-04-24 15:09 | 38.75589 | -86.36619 | 33890 ft | 435 kts | 275° |
| 2026-04-24 15:09 | 38.75916 | -86.44361 | 33884 ft | 434 kts | 275° |
| 2026-04-24 15:10 | 38.76290 | -86.53331 | 33884 ft | 433 kts | 275° |
| 2026-04-24 15:10 | 38.76558 | -86.59784 | 33899 ft | 432 kts | 274° |
| 2026-04-24 15:11 | 38.76869 | -86.67423 | 33877 ft | 431 kts | 274° |
| 2026-04-24 15:11 | 38.77177 | -86.75094 | 33881 ft | 430 kts | 274° |
| 2026-04-24 15:12 | 38.77479 | -86.82738 | 33880 ft | 429 kts | 274° |
| 2026-04-24 15:12 | 38.77921 | -86.94200 | 33880 ft | 429 kts | 274° |
| 2026-04-24 15:13 | 38.78211 | -87.01849 | 33880 ft | 429 kts | 272° |
| 2026-04-24 15:13 | 38.78493 | -87.09443 | 33878 ft | 429 kts | 272° |
| 2026-04-24 15:14 | 38.78772 | -87.17090 | 33878 ft | 429 kts | 272° |
| 2026-04-24 15:14 | 38.79046 | -87.24731 | 33864 ft | 429 kts | 272° |
| 2026-04-24 15:15 | 38.79313 | -87.32321 | 33859 ft | 429 kts | 272° |
| 2026-04-24 15:15 | 38.79578 | -87.39982 | 33861 ft | 430 kts | 271° |
| 2026-04-24 15:16 | 38.79838 | -87.47649 | 33860 ft | 430 kts | 271° |
| 2026-04-24 15:16 | 38.80092 | -87.55314 | 33862 ft | 431 kts | 271° |
| 2026-04-24 15:17 | 38.80341 | -87.62950 | 33863 ft | 431 kts | 271° |
| 2026-04-24 15:17 | 38.80586 | -87.70636 | 34074 ft | 431 kts | 271° |
| 2026-04-24 15:18 | 38.80827 | -87.78336 | 34070 ft | 432 kts | 270° |
| 2026-04-24 15:18 | 38.81063 | -87.86055 | 34048 ft | 433 kts | 270° |
| 2026-04-24 15:19 | 38.81293 | -87.93734 | 34000 ft | 434 kts | 270° |
| 2026-04-24 15:19 | 38.81521 | -88.01493 | 33954 ft | 435 kts | 270° |
| 2026-04-24 15:20 | 38.81743 | -88.09250 | 33908 ft | 436 kts | 270° |
| 2026-04-24 15:20 | 38.81960 | -88.17024 | 33868 ft | 437 kts | 270° |
| 2026-04-24 15:21 | 38.82172 | -88.24768 | 33868 ft | 437 kts | 270° |
| 2026-04-24 15:21 | 38.82379 | -88.32568 | 33864 ft | 437 kts | 270° |
| 2026-04-24 15:22 | 38.82582 | -88.40365 | 33856 ft | 437 kts | 270° |
| 2026-04-24 15:23 | 38.82876 | -88.52046 | 33856 ft | 436 kts | 269° |
| 2026-04-24 15:23 | 38.83156 | -88.63648 | 33837 ft | 435 kts | 269° |
| 2026-04-24 15:25 | 38.83569 | -88.81682 | 33840 ft | 432 kts | 269° |
| 2026-04-24 15:26 | 38.84004 | -89.02145 | 33838 ft | 428 kts | 269° |
| 2026-04-24 15:27 | 38.84448 | -89.24958 | 33860 ft | 424 kts | 268° |
| 2026-04-24 15:29 | 38.84848 | -89.47565 | 33841 ft | 421 kts | 268° |
| 2026-04-24 15:31 | 38.85257 | -89.73783 | 33851 ft | 421 kts | 268° |
| 2026-04-24 15:33 | 38.85654 | -90.03878 | 33864 ft | 423 kts | 267° |
| 2026-04-24 15:34 | 38.85864 | -90.22750 | 33845 ft | 421 kts | 267° |
| 2026-04-24 15:35 | 38.86043 | -90.41428 | 33854 ft | 419 kts | 267° |
| 2026-04-24 15:36 | 38.86027 | -90.48896 | 33838 ft | 416 kts | 261° |
| 2026-04-24 15:36 | 38.84637 | -90.59784 | 33841 ft | 411 kts | 257° |
| 2026-04-24 15:37 | 38.83673 | -90.67017 | 33831 ft | 411 kts | 257° |
| 2026-04-24 15:37 | 38.82727 | -90.74212 | 33836 ft | 412 kts | 257° |
| 2026-04-24 15:38 | 38.81777 | -90.81460 | 33839 ft | 413 kts | 257° |
| 2026-04-24 15:38 | 38.80821 | -90.88723 | 33829 ft | 413 kts | 257° |
| 2026-04-24 15:39 | 38.79861 | -90.95985 | 33829 ft | 413 kts | 257° |
| 2026-04-24 15:39 | 38.78896 | -91.03239 | 33825 ft | 413 kts | 257° |
| 2026-04-24 15:40 | 38.77929 | -91.10485 | 33826 ft | 412 kts | 257° |
| 2026-04-24 15:40 | 38.76957 | -91.17722 | 33842 ft | 412 kts | 256° |
| 2026-04-24 15:41 | 38.75982 | -91.24950 | 33825 ft | 411 kts | 256° |
| 2026-04-24 15:41 | 38.75002 | -91.32175 | 33821 ft | 411 kts | 256° |
| 2026-04-24 15:42 | 38.74023 | -91.39371 | 33827 ft | 409 kts | 256° |
| 2026-04-24 15:42 | 38.73039 | -91.46554 | 33826 ft | 409 kts | 256° |
| 2026-04-24 15:43 | 38.72058 | -91.53693 | 33840 ft | 409 kts | 256° |
| 2026-04-24 15:43 | 38.71066 | -91.60869 | 33826 ft | 409 kts | 256° |
| 2026-04-24 15:44 | 38.70072 | -91.68043 | 33833 ft | 410 kts | 256° |
| 2026-04-24 15:44 | 38.69069 | -91.75225 | 33830 ft | 410 kts | 256° |
| 2026-04-24 15:45 | 38.68041 | -91.82422 | 33828 ft | 411 kts | 255° |
| 2026-04-24 15:45 | 38.67008 | -91.89588 | 33839 ft | 412 kts | 255° |
| 2026-04-24 15:46 | 38.65964 | -91.96820 | 33852 ft | 414 kts | 255° |
| 2026-04-24 15:46 | 38.64915 | -92.04062 | 33854 ft | 415 kts | 255° |
| 2026-04-24 15:47 | 38.63858 | -92.11330 | 33854 ft | 416 kts | 255° |
| 2026-04-24 15:47 | 38.62801 | -92.18604 | 33834 ft | 416 kts | 256° |
| 2026-04-24 15:48 | 38.61749 | -92.25899 | 33844 ft | 416 kts | 256° |
| 2026-04-24 15:48 | 38.60702 | -92.33125 | 33857 ft | 417 kts | 255° |
| 2026-04-24 15:49 | 38.59640 | -92.40417 | 33854 ft | 417 kts | 255° |
| 2026-04-24 15:49 | 38.58575 | -92.47695 | 33844 ft | 417 kts | 255° |
| 2026-04-24 15:50 | 38.57506 | -92.54968 | 33838 ft | 416 kts | 255° |
| 2026-04-24 15:50 | 38.56433 | -92.62231 | 33834 ft | 415 kts | 255° |
| 2026-04-24 15:51 | 38.55356 | -92.69491 | 33843 ft | 415 kts | 254° |
| 2026-04-24 15:51 | 38.54286 | -92.76676 | 33832 ft | 414 kts | 254° |
| 2026-04-24 15:52 | 38.53205 | -92.83897 | 33833 ft | 413 kts | 254° |
| 2026-04-24 15:52 | 38.52124 | -92.91091 | 33851 ft | 412 kts | 254° |
| 2026-04-24 15:53 | 38.51040 | -92.98271 | 33846 ft | 411 kts | 254° |
| 2026-04-24 15:53 | 38.49953 | -93.05435 | 33882 ft | 411 kts | 254° |
| 2026-04-24 15:54 | 38.48867 | -93.12562 | 33878 ft | 411 kts | 255° |
| 2026-04-24 15:54 | 38.47770 | -93.19732 | 33879 ft | 412 kts | 255° |
| 2026-04-24 15:55 | 38.46663 | -93.26941 | 33889 ft | 413 kts | 255° |
| 2026-04-24 15:55 | 38.45549 | -93.34160 | 33885 ft | 415 kts | 255° |
| 2026-04-24 15:56 | 38.44620 | -93.40162 | 33888 ft | 415 kts | 255° |
| 2026-04-24 15:56 | 38.43311 | -93.48578 | 33881 ft | 416 kts | 255° |
| 2026-04-24 15:57 | 38.42363 | -93.54648 | 33877 ft | 416 kts | 255° |
| 2026-04-24 15:57 | 38.41233 | -93.61852 | 33881 ft | 417 kts | 254° |
| 2026-04-24 15:58 | 38.40090 | -93.69111 | 33880 ft | 417 kts | 254° |
| 2026-04-24 15:58 | 38.38944 | -93.76365 | 33849 ft | 416 kts | 254° |
| 2026-04-24 15:59 | 38.37801 | -93.83565 | 33863 ft | 416 kts | 255° |
| 2026-04-24 15:59 | 38.36651 | -93.90777 | 33846 ft | 414 kts | 255° |
| 2026-04-24 16:00 | 38.35504 | -93.97951 | 33844 ft | 412 kts | 255° |
| 2026-04-24 16:00 | 38.34356 | -94.05093 | 33853 ft | 410 kts | 254° |
| 2026-04-24 16:01 | 38.33203 | -94.12205 | 33862 ft | 409 kts | 254° |
| 2026-04-24 16:01 | 38.32056 | -94.19243 | 33864 ft | 408 kts | 254° |
| 2026-04-24 16:02 | 38.30901 | -94.26312 | 33870 ft | 407 kts | 254° |
| 2026-04-24 16:02 | 38.29746 | -94.33360 | 33856 ft | 406 kts | 254° |
| 2026-04-24 16:03 | 38.28590 | -94.40386 | 33854 ft | 405 kts | 254° |
| 2026-04-24 16:03 | 38.27431 | -94.47400 | 33849 ft | 404 kts | 254° |
| 2026-04-24 16:04 | 38.26308 | -94.54403 | 33849 ft | 404 kts | 255° |
| 2026-04-24 16:04 | 38.25230 | -94.61368 | 33858 ft | 404 kts | 255° |
| 2026-04-24 16:05 | 38.23589 | -94.71893 | 33853 ft | 404 kts | 255° |
| 2026-04-24 16:06 | 38.21930 | -94.82416 | 33856 ft | 405 kts | 255° |
| 2026-04-24 16:07 | 38.20259 | -94.92952 | 33862 ft | 405 kts | 255° |
| 2026-04-24 16:07 | 38.18584 | -95.03448 | 33873 ft | 406 kts | 255° |
| 2026-04-24 16:08 | 38.16890 | -95.14001 | 33862 ft | 406 kts | 255° |
| 2026-04-24 16:09 | 38.15181 | -95.24490 | 33869 ft | 405 kts | 255° |
| 2026-04-24 16:09 | 38.14033 | -95.31499 | 33868 ft | 405 kts | 255° |
| 2026-04-24 16:11 | 38.11148 | -95.49022 | 33878 ft | 404 kts | 254° |
| 2026-04-24 16:11 | 38.09996 | -95.55973 | 33879 ft | 404 kts | 254° |
| 2026-04-24 16:12 | 38.08254 | -95.66433 | 33903 ft | 403 kts | 254° |
| 2026-04-24 16:13 | 38.06505 | -95.76871 | 33907 ft | 402 kts | 255° |
| 2026-04-24 16:14 | 38.04173 | -95.90698 | 33838 ft | 401 kts | 255° |
| 2026-04-24 16:14 | 38.02419 | -96.01031 | 33886 ft | 400 kts | 255° |
| 2026-04-24 16:15 | 38.00643 | -96.11432 | 33920 ft | 403 kts | 255° |
| 2026-04-24 16:16 | 37.98859 | -96.21821 | 33894 ft | 403 kts | 255° |
| 2026-04-24 16:17 | 37.95861 | -96.39158 | 33890 ft | 402 kts | 255° |
| 2026-04-24 16:18 | 37.93460 | -96.52923 | 33893 ft | 400 kts | 256° |
| 2026-04-24 16:19 | 37.91650 | -96.63236 | 33906 ft | 398 kts | 255° |
| 2026-04-24 16:20 | 37.89851 | -96.73438 | 33910 ft | 396 kts | 255° |
| 2026-04-24 16:20 | 37.88042 | -96.83638 | 33914 ft | 395 kts | 255° |
| 2026-04-24 16:21 | 37.86223 | -96.93836 | 33918 ft | 395 kts | 256° |
| 2026-04-24 16:22 | 37.85019 | -97.00565 | 33906 ft | 394 kts | 255° |
| 2026-04-24 16:22 | 37.83200 | -97.10688 | 33916 ft | 393 kts | 255° |
| 2026-04-24 16:23 | 37.81982 | -97.17438 | 33920 ft | 393 kts | 255° |
| 2026-04-24 16:24 | 37.80150 | -97.27541 | 33919 ft | 393 kts | 255° |
| 2026-04-24 16:24 | 37.78925 | -97.34272 | 33918 ft | 393 kts | 255° |
| 2026-04-24 16:25 | 37.77700 | -97.40977 | 33905 ft | 393 kts | 255° |
| 2026-04-24 16:25 | 37.76464 | -97.47724 | 33900 ft | 394 kts | 255° |
| 2026-04-24 16:26 | 37.74609 | -97.57809 | 33874 ft | 394 kts | 255° |
| 2026-04-24 16:27 | 37.72690 | -97.67929 | 33873 ft | 394 kts | 255° |
| 2026-04-24 16:27 | 37.71399 | -97.74649 | 33867 ft | 393 kts | 255° |
| 2026-04-24 16:28 | 37.70109 | -97.81363 | 33873 ft | 393 kts | 255° |
| 2026-04-24 16:28 | 37.68179 | -97.91379 | 33863 ft | 392 kts | 255° |
| 2026-04-24 16:29 | 37.66883 | -97.98078 | 33894 ft | 392 kts | 255° |
| 2026-04-24 16:30 | 37.64287 | -98.11432 | 33867 ft | 392 kts | 255° |
| 2026-04-24 16:30 | 37.62982 | -98.18117 | 33866 ft | 392 kts | 255° |
| 2026-04-24 16:31 | 37.61673 | -98.24796 | 33861 ft | 392 kts | 255° |
| 2026-04-24 16:31 | 37.60363 | -98.31466 | 33866 ft | 392 kts | 255° |
| 2026-04-24 16:32 | 37.59046 | -98.38146 | 33870 ft | 392 kts | 255° |
| 2026-04-24 16:32 | 37.57724 | -98.44812 | 33892 ft | 392 kts | 255° |
| 2026-04-24 16:33 | 37.56404 | -98.51428 | 33904 ft | 392 kts | 255° |
| 2026-04-24 16:33 | 37.55072 | -98.58083 | 33915 ft | 391 kts | 255° |
| 2026-04-24 16:34 | 37.53738 | -98.64737 | 33921 ft | 391 kts | 255° |
| 2026-04-24 16:34 | 37.52400 | -98.71388 | 33921 ft | 391 kts | 255° |
| 2026-04-24 16:35 | 37.51059 | -98.78036 | 33925 ft | 391 kts | 255° |
| 2026-04-24 16:35 | 37.49712 | -98.84690 | 33910 ft | 392 kts | 255° |
| 2026-04-24 16:36 | 37.48363 | -98.91335 | 33899 ft | 392 kts | 255° |
| 2026-04-24 16:36 | 37.47018 | -98.97940 | 33885 ft | 392 kts | 255° |
| 2026-04-24 16:37 | 37.45660 | -99.04587 | 33873 ft | 392 kts | 255° |
| 2026-04-24 16:37 | 37.44301 | -99.11223 | 33875 ft | 392 kts | 255° |
| 2026-04-24 16:38 | 37.42932 | -99.17880 | 33864 ft | 391 kts | 255° |
| 2026-04-24 16:38 | 37.41574 | -99.24470 | 33869 ft | 391 kts | 255° |
| 2026-04-24 16:39 | 37.40203 | -99.31096 | 33869 ft | 391 kts | 255° |
| 2026-04-24 16:39 | 37.38830 | -99.37715 | 33868 ft | 391 kts | 255° |
| 2026-04-24 16:40 | 37.37455 | -99.44327 | 33868 ft | 391 kts | 255° |
| 2026-04-24 16:40 | 37.36075 | -99.50937 | 33873 ft | 391 kts | 255° |
| 2026-04-24 16:41 | 37.34693 | -99.57540 | 33872 ft | 390 kts | 255° |
| 2026-04-24 16:41 | 37.33307 | -99.64141 | 33870 ft | 390 kts | 255° |
| 2026-04-24 16:42 | 37.31916 | -99.70743 | 33870 ft | 390 kts | 255° |
| 2026-04-24 16:42 | 37.30535 | -99.77283 | 33864 ft | 390 kts | 255° |
| 2026-04-24 16:43 | 37.29141 | -99.83860 | 33865 ft | 390 kts | 255° |
| 2026-04-24 16:43 | 37.27743 | -99.90442 | 33871 ft | 390 kts | 255° |
| 2026-04-24 16:44 | 37.26339 | -99.97027 | 33873 ft | 390 kts | 255° |
| 2026-04-24 16:44 | 37.25171 | -100.02492 | 33874 ft | 390 kts | 255° |
| 2026-04-24 16:45 | 37.23535 | -100.10129 | 33877 ft | 390 kts | 255° |
| 2026-04-24 16:45 | 37.22118 | -100.16716 | 33880 ft | 390 kts | 255° |
| 2026-04-24 16:46 | 37.20939 | -100.22186 | 33889 ft | 390 kts | 255° |
| 2026-04-24 16:46 | 37.19518 | -100.28759 | 33885 ft | 390 kts | 255° |
| 2026-04-24 16:47 | 37.18094 | -100.35326 | 33885 ft | 389 kts | 255° |
| 2026-04-24 16:47 | 37.16677 | -100.41842 | 33882 ft | 389 kts | 255° |
| 2026-04-24 16:48 | 37.15250 | -100.48388 | 33892 ft | 389 kts | 255° |
| 2026-04-24 16:48 | 37.13818 | -100.54934 | 33895 ft | 389 kts | 255° |
| 2026-04-24 16:49 | 37.12381 | -100.61485 | 33922 ft | 389 kts | 256° |
| 2026-04-24 16:49 | 37.10945 | -100.68015 | 33932 ft | 389 kts | 256° |
| 2026-04-24 16:50 | 37.09505 | -100.74545 | 33942 ft | 389 kts | 255° |
| 2026-04-24 16:50 | 37.08072 | -100.81023 | 33964 ft | 388 kts | 255° |
| 2026-04-24 16:51 | 37.06628 | -100.87536 | 33973 ft | 388 kts | 255° |
| 2026-04-24 16:51 | 37.05178 | -100.94055 | 33971 ft | 388 kts | 255° |
| 2026-04-24 16:52 | 37.03944 | -101.00621 | 33978 ft | 387 kts | 260° |
| 2026-04-24 16:52 | 37.03066 | -101.07272 | 33971 ft | 388 kts | 261° |
| 2026-04-24 16:53 | 37.02200 | -101.13937 | 33957 ft | 388 kts | 261° |
| 2026-04-24 16:53 | 37.01310 | -101.20594 | 33942 ft | 388 kts | 261° |
| 2026-04-24 16:54 | 37.00412 | -101.27202 | 33948 ft | 388 kts | 260° |
| 2026-04-24 16:54 | 36.99500 | -101.33854 | 33950 ft | 388 kts | 261° |
| 2026-04-24 16:55 | 36.98583 | -101.40504 | 33945 ft | 388 kts | 261° |
| 2026-04-24 16:55 | 36.97661 | -101.47157 | 33937 ft | 387 kts | 261° |
| 2026-04-24 16:56 | 36.96738 | -101.53798 | 33925 ft | 387 kts | 261° |
| 2026-04-24 16:56 | 36.95810 | -101.60439 | 33932 ft | 387 kts | 261° |
| 2026-04-24 16:57 | 36.94884 | -101.67041 | 33953 ft | 388 kts | 261° |
| 2026-04-24 16:57 | 36.93949 | -101.73679 | 33973 ft | 388 kts | 261° |
| 2026-04-24 16:58 | 36.93011 | -101.80312 | 33988 ft | 387 kts | 261° |
| 2026-04-24 16:58 | 36.92068 | -101.86958 | 33990 ft | 387 kts | 261° |
| 2026-04-24 16:59 | 36.91128 | -101.93547 | 33987 ft | 387 kts | 261° |
| 2026-04-24 17:00 | 36.89701 | -102.03500 | 33949 ft | 387 kts | 261° |
| 2026-04-24 17:00 | 36.88267 | -102.13446 | 33913 ft | 388 kts | 261° |
| 2026-04-24 17:01 | 36.86830 | -102.23350 | 33843 ft | 388 kts | 261° |
| 2026-04-24 17:02 | 36.85377 | -102.33302 | 33844 ft | 388 kts | 261° |
| 2026-04-24 17:02 | 36.84403 | -102.39940 | 33841 ft | 388 kts | 261° |
| 2026-04-24 17:03 | 36.82939 | -102.49865 | 33842 ft | 389 kts | 261° |
| 2026-04-24 17:04 | 36.81954 | -102.56508 | 33845 ft | 388 kts | 261° |
| 2026-04-24 17:04 | 36.80473 | -102.66450 | 33847 ft | 389 kts | 261° |
| 2026-04-24 17:05 | 36.79480 | -102.73089 | 33846 ft | 388 kts | 261° |
| 2026-04-24 17:06 | 36.77991 | -102.82987 | 33850 ft | 388 kts | 261° |
| 2026-04-24 17:06 | 36.76489 | -102.92914 | 33838 ft | 389 kts | 260° |
| 2026-04-24 17:07 | 36.75481 | -102.99545 | 33846 ft | 390 kts | 260° |
| 2026-04-24 17:08 | 36.73473 | -103.12861 | 33862 ft | 392 kts | 261° |
| 2026-04-24 17:08 | 36.72584 | -103.19576 | 33856 ft | 393 kts | 262° |
| 2026-04-24 17:09 | 36.70817 | -103.33021 | 33856 ft | 394 kts | 261° |
| 2026-04-24 17:10 | 36.69006 | -103.46496 | 33862 ft | 393 kts | 261° |
| 2026-04-24 17:12 | 36.65341 | -103.73352 | 33866 ft | 392 kts | 261° |
| 2026-04-24 18:54 | 33.25563 | -116.29885 | 17384 ft | 361 kts | 211° |
| 2026-04-24 18:55 | 33.21094 | -116.32438 | 16539 ft | 352 kts | 211° |
| 2026-04-24 18:55 | 33.18932 | -116.33686 | 16136 ft | 338 kts | 211° |
| 2026-04-24 18:55 | 33.16848 | -116.34896 | 15760 ft | 326 kts | 211° |
| 2026-04-24 18:56 | 33.14836 | -116.36069 | 15416 ft | 319 kts | 211° |
| 2026-04-24 18:56 | 33.12846 | -116.37236 | 15068 ft | 319 kts | 211° |
| 2026-04-24 18:56 | 33.10859 | -116.38401 | 14753 ft | 318 kts | 210° |
| 2026-04-24 18:56 | 33.08863 | -116.39570 | 14384 ft | 320 kts | 210° |
| 2026-04-24 18:57 | 33.06861 | -116.40739 | 14039 ft | 320 kts | 210° |
| 2026-04-24 18:57 | 33.04860 | -116.41907 | 13649 ft | 319 kts | 210° |
| 2026-04-24 18:57 | 33.02887 | -116.43055 | 13259 ft | 312 kts | 209° |
| 2026-04-24 18:57 | 33.00947 | -116.44190 | 12903 ft | 311 kts | 211° |
| 2026-04-24 18:58 | 32.99166 | -116.45600 | 12571 ft | 311 kts | 221° |
| 2026-04-24 18:58 | 32.97522 | -116.47262 | 12203 ft | 307 kts | 224° |
| 2026-04-24 18:58 | 32.95928 | -116.48945 | 11871 ft | 306 kts | 224° |
| 2026-04-24 18:58 | 32.94323 | -116.50631 | 11556 ft | 308 kts | 223° |
| 2026-04-24 18:59 | 32.92712 | -116.52298 | 11211 ft | 305 kts | 223° |
| 2026-04-24 18:59 | 32.91122 | -116.53923 | 10868 ft | 297 kts | 222° |
| 2026-04-24 18:59 | 32.89572 | -116.55496 | 10536 ft | 289 kts | 222° |
| 2026-04-24 18:59 | 32.88055 | -116.57027 | 10213 ft | 282 kts | 221° |
| 2026-04-24 19:00 | 32.86593 | -116.58500 | 9915 ft | 275 kts | 221° |
| 2026-04-24 19:00 | 32.85145 | -116.59956 | 9595 ft | 269 kts | 221° |
| 2026-04-24 19:00 | 32.83730 | -116.61381 | 9274 ft | 263 kts | 221° |
| 2026-04-24 19:00 | 32.82350 | -116.62772 | 8983 ft | 257 kts | 221° |
| 2026-04-24 19:01 | 32.81001 | -116.64131 | 8705 ft | 252 kts | 221° |
| 2026-04-24 19:01 | 32.79672 | -116.65468 | 8423 ft | 247 kts | 221° |
| 2026-04-24 19:01 | 32.78369 | -116.66778 | 8141 ft | 242 kts | 222° |
| 2026-04-24 19:01 | 32.77185 | -116.68139 | 7915 ft | 230 kts | 237° |
| 2026-04-24 19:02 | 32.76664 | -116.69205 | 7777 ft | 221 kts | 243° |
| 2026-04-24 19:02 | 32.75725 | -116.71261 | 7476 ft | 206 kts | 242° |
| 2026-04-24 19:02 | 32.75046 | -116.72710 | 7263 ft | 196 kts | 242° |
| 2026-04-24 19:02 | 32.74390 | -116.74102 | 7058 ft | 190 kts | 242° |
| 2026-04-24 19:03 | 32.73750 | -116.75454 | 6860 ft | 186 kts | 243° |
| 2026-04-24 19:03 | 32.73115 | -116.76800 | 6698 ft | 188 kts | 242° |
| 2026-04-24 19:03 | 32.72474 | -116.78161 | 6521 ft | 189 kts | 242° |
| 2026-04-24 19:03 | 32.71831 | -116.79518 | 6317 ft | 194 kts | 242° |
| 2026-04-24 19:04 | 32.71168 | -116.80919 | 6109 ft | 195 kts | 242° |
| 2026-04-24 19:04 | 32.70545 | -116.82335 | 5879 ft | 191 kts | 249° |
| 2026-04-24 19:04 | 32.70086 | -116.83791 | 5663 ft | 186 kts | 251° |
| 2026-04-24 19:04 | 32.69651 | -116.85224 | 5439 ft | 183 kts | 251° |
| 2026-04-24 19:05 | 32.69217 | -116.86641 | 5227 ft | 182 kts | 251° |
| 2026-04-24 19:05 | 32.68782 | -116.88065 | 5021 ft | 183 kts | 252° |
| 2026-04-24 19:05 | 32.68367 | -116.89484 | 4795 ft | 181 kts | 252° |
| 2026-04-24 19:05 | 32.67950 | -116.90906 | 4609 ft | 184 kts | 252° |
| 2026-04-24 19:06 | 32.67522 | -116.92364 | 4388 ft | 188 kts | 252° |
| 2026-04-24 19:06 | 32.67263 | -116.93844 | 4143 ft | 186 kts | 278° |
| 2026-04-24 19:06 | 32.67594 | -116.95309 | 3962 ft | 182 kts | 286° |
| 2026-04-24 19:06 | 32.67949 | -116.96751 | 3746 ft | 182 kts | 285° |
| 2026-04-24 19:07 | 32.68302 | -116.98192 | 3525 ft | 183 kts | 285° |
| 2026-04-24 19:07 | 32.68661 | -116.99645 | 3336 ft | 186 kts | 286° |
| 2026-04-24 19:07 | 32.68921 | -117.00619 | 3166 ft | 187 kts | 285° |
| 2026-04-24 19:07 | 32.69409 | -117.02559 | 2883 ft | 180 kts | 284° |
| 2026-04-24 19:08 | 32.69751 | -117.03974 | 2663 ft | 176 kts | 284° |
| 2026-04-24 19:08 | 32.70073 | -117.05313 | 2505 ft | 160 kts | 282° |
| 2026-04-24 19:08 | 32.70370 | -117.06551 | 2260 ft | 152 kts | 281° |
| 2026-04-24 19:08 | 32.70654 | -117.07731 | 2048 ft | 150 kts | 282° |
| 2026-04-24 19:09 | 32.70848 | -117.08545 | 1901 ft | 153 kts | 283° |
| 2026-04-24 19:09 | 32.71239 | -117.10176 | 1574 ft | 155 kts | 283° |
| 2026-04-24 19:09 | 32.71533 | -117.11397 | 1340 ft | 153 kts | 283° |
| 2026-04-24 19:09 | 32.71818 | -117.12582 | 1102 ft | 146 kts | 284° |
| 2026-04-24 19:10 | 32.72101 | -117.13759 | 888 ft | 149 kts | 284° |
| 2026-04-24 19:10 | 32.72293 | -117.14557 | 722 ft | 149 kts | 285° |
| 2026-04-24 19:10 | 32.72572 | -117.15716 | 505 ft | 143 kts | 282° |
| 2026-04-24 19:10 | 32.72836 | -117.16811 | 296 ft | 138 kts | 283° |
| 2026-04-24 19:11 | 32.73103 | -117.17923 | 63 ft | 141 kts | 283° |
| 2026-04-24 19:11 | 32.73371 | -117.19046 | 24 ft | 142 kts | 282° |
| 2026-04-24 19:11 | 32.73535 | -117.19751 | 24 ft | 21 kts | 260° |
| 2026-04-24 19:11 | 32.73483 | -117.19833 | 22 ft | 12 kts | 177° |
| 2026-04-24 19:12 | 32.73445 | -117.19761 | 22 ft | 10 kts | 108° |
| 2026-04-24 19:12 | 32.73425 | -117.19683 | 22 ft | 7 kts | 106° |
| 2026-04-24 19:12 | 32.73412 | -117.19631 | 24 ft | 7 kts | 106° |
| 2026-04-24 19:12 | 32.73382 | -117.19597 | 22 ft | 6 kts | 172° |
| 2026-04-24 19:13 | 32.73352 | -117.19601 | 22 ft | 6 kts | 190° |
| 2026-04-24 19:13 | 32.73322 | -117.19610 | 22 ft | 0 kts | 197° |